createdAt,value
2022-11-28T08:31:51.207Z,44.60
2022-11-28T08:36:53.191Z,50.13
2022-11-28T08:42:00.055Z,39.13
2022-11-28T08:47:02.150Z,45.05
2022-11-28T08:52:06.243Z,49.60
2022-11-28T08:57:08.209Z,46.10
2022-11-28T09:02:12.800Z,43.30
2022-11-28T09:07:14.966Z,37.13
2022-11-28T09:12:17.088Z,27.38
2022-11-28T09:17:19.154Z,24.45
2022-11-28T09:22:21.210Z,24.40
2022-11-28T09:27:23.307Z,26.27
2022-11-28T09:32:25.395Z,21.50
2022-11-28T09:37:30.240Z,24.15
2022-11-28T09:42:39.798Z,23.48
2022-11-28T09:47:45.868Z,20.92
2022-11-28T09:52:53.775Z,21.05
2022-11-28T09:57:56.068Z,22.17
2022-11-28T10:03:29.756Z,20.27
2022-11-28T10:08:51.934Z,20.15
2022-11-28T10:14:09.131Z,23.48
2022-11-28T10:19:46.219Z,20.08
2022-11-28T10:24:45.167Z,21.17
2022-11-28T10:29:52.058Z,19.10
2022-11-28T10:35:02.082Z,24.33
2022-11-28T10:40:23.987Z,22.65
2022-11-28T10:45:44.576Z,20.65
2022-11-28T10:51:09.735Z,21.85
2022-11-28T10:56:36.152Z,26.85
2022-11-28T11:01:40.115Z,26.42
2022-11-28T11:07:06.899Z,20.50
2022-11-28T11:12:11.493Z,25.35
2022-11-28T11:17:30.048Z,21.13
2022-11-28T11:22:34.675Z,13.05
2022-11-28T11:27:38.189Z,25.00
2022-11-28T11:32:40.216Z,17.70
2022-11-28T11:37:42.296Z,14.20
2022-11-28T11:42:54.456Z,13.45
2022-11-28T11:47:56.998Z,11.50
2022-11-28T11:53:14.356Z,12.52
2022-11-28T11:58:22.296Z,16.17
2022-11-28T12:03:53.279Z,19.90
2022-11-28T12:09:14.930Z,14.48
2022-11-28T12:14:34.469Z,13.73
2022-11-28T12:19:54.987Z,22.13
2022-11-28T12:25:18.181Z,13.88
2022-11-28T12:30:39.193Z,21.98
2022-11-28T12:36:07.102Z,27.90
2022-11-28T12:41:32.031Z,25.55
2022-11-28T12:47:06.814Z,19.77
2022-11-28T12:52:24.170Z,23.30
2022-11-28T12:57:33.705Z,24.92
2022-11-28T13:02:57.335Z,27.83
2022-11-28T13:08:23.688Z,27.45
2022-11-28T13:13:45.741Z,21.67
2022-11-28T13:18:54.914Z,23.20
2022-11-28T13:24:06.622Z,17.55
2022-11-28T13:29:23.315Z,24.30
2022-11-28T13:34:27.218Z,22.45
2022-11-28T13:39:57.508Z,19.48
2022-11-28T13:50:23.663Z,34.38
2022-11-28T13:55:47.155Z,20.83
2022-11-28T14:01:10.050Z,29.40
2022-11-28T14:06:15.124Z,34.13
2022-11-28T14:11:27.686Z,27.33
2022-11-28T14:16:45.504Z,21.17
2022-11-28T14:22:28.059Z,24.80
2022-11-28T14:27:35.134Z,19.17
2022-11-28T14:32:42.076Z,22.75
2022-11-28T14:37:53.202Z,17.58
2022-11-28T14:43:28.110Z,22.30
2022-11-28T14:48:30.960Z,20.92
2022-11-28T14:53:36.628Z,17.40
2022-11-28T14:58:39.154Z,21.55
2022-11-28T15:04:12.869Z,31.88
2022-11-28T15:09:21.738Z,26.50
2022-11-28T15:14:26.137Z,24.85
2022-11-28T15:19:45.438Z,19.30
2022-11-28T15:24:52.723Z,22.75
2022-11-28T15:30:00.026Z,20.58
2022-11-28T15:35:09.224Z,14.68
2022-11-28T15:40:25.225Z,19.13
2022-11-28T15:45:35.693Z,21.42
2022-11-28T15:50:37.719Z,19.80
2022-11-28T15:55:39.783Z,21.98
2022-11-28T16:00:45.371Z,15.88
2022-11-28T16:05:49.305Z,15.32
2022-11-28T16:10:51.391Z,17.52
2022-11-28T16:15:56.562Z,17.40
2022-11-28T16:21:01.309Z,21.52
2022-11-28T16:26:33.247Z,22.92
2022-11-28T16:31:37.173Z,18.73
2022-11-28T16:36:40.163Z,19.50
2022-11-28T16:46:59.189Z,20.10
2022-11-28T16:52:22.804Z,16.15
2022-11-28T16:57:31.650Z,15.00
2022-11-28T17:02:35.324Z,17.30
2022-11-28T17:07:37.980Z,16.90
2022-11-28T17:12:41.135Z,14.20
2022-11-28T17:17:43.542Z,12.27
2022-11-28T17:22:48.493Z,16.02
2022-11-28T17:27:50.922Z,14.27
2022-11-28T17:32:53.616Z,22.77
2022-11-28T17:37:55.888Z,17.77
2022-11-28T17:42:58.571Z,20.90
2022-11-28T17:48:01.143Z,14.07
2022-11-28T17:53:03.323Z,20.45
2022-11-28T17:58:05.843Z,23.58
2022-11-28T18:03:09.167Z,19.13
2022-11-28T18:08:11.873Z,18.48
2022-11-28T18:13:16.907Z,17.73
2022-11-28T18:18:19.407Z,14.68
2022-11-28T18:23:22.083Z,15.25
2022-11-28T18:28:24.568Z,17.02
2022-11-28T18:33:27.298Z,24.20
2022-11-28T18:38:29.805Z,15.07
2022-11-28T18:43:34.701Z,16.35
2022-11-28T18:48:38.542Z,21.10
2022-11-28T18:53:41.355Z,21.02
2022-11-28T18:58:46.325Z,18.08
2022-11-28T19:03:53.124Z,21.95
2022-11-28T19:08:57.545Z,11.30
2022-11-28T19:14:00.489Z,28.55
2022-11-28T19:19:04.262Z,24.95
2022-11-28T19:24:11.404Z,16.10
2022-11-28T19:29:14.274Z,19.35
2022-11-28T19:39:25.953Z,20.40
2022-11-28T19:44:31.509Z,18.13
2022-11-28T19:49:34.202Z,19.08
2022-11-28T19:54:43.349Z,25.30
2022-11-28T19:59:46.356Z,19.15
2022-11-28T20:04:49.193Z,18.88
2022-11-28T20:09:51.413Z,20.40
2022-11-28T20:14:53.986Z,29.98
2022-11-28T20:19:56.174Z,25.70
2022-11-28T20:25:02.202Z,17.38
2022-11-28T20:30:08.334Z,22.00
2022-11-28T20:35:15.647Z,22.77
2022-11-28T20:40:18.515Z,27.27
2022-11-28T20:45:21.110Z,22.02
2022-11-28T20:50:26.790Z,22.85
2022-11-28T20:55:29.334Z,24.92
2022-11-28T21:00:31.884Z,21.70
2022-11-28T21:05:37.597Z,19.10
2022-11-28T21:10:39.886Z,20.40
2022-11-28T21:15:45.762Z,24.00
2022-11-28T21:20:48.386Z,22.85
2022-11-28T21:25:50.433Z,23.25
2022-11-28T21:30:52.461Z,18.20
2022-11-28T21:35:54.563Z,14.93
2022-11-28T21:40:57.067Z,17.88
2022-11-28T21:46:07.633Z,20.45
2022-11-28T21:51:16.715Z,18.85
2022-11-28T22:01:21.820Z,15.23
2022-11-28T22:06:26.113Z,20.13
2022-11-28T22:11:28.092Z,19.13
2022-11-28T22:16:30.276Z,21.95
2022-11-28T22:26:55.255Z,16.50
2022-11-28T22:31:57.302Z,19.10
2022-11-28T22:36:59.326Z,20.25
2022-11-28T22:42:01.568Z,21.63
2022-11-28T22:47:03.604Z,19.45
2022-11-28T22:52:05.657Z,27.15
2022-11-28T22:57:07.716Z,19.15
2022-11-28T23:02:10.016Z,16.02
2022-11-28T23:07:12.067Z,28.23
2022-11-28T23:12:14.031Z,19.67
2022-11-28T23:17:16.013Z,27.52
2022-11-28T23:22:17.991Z,15.07
2022-11-28T23:27:19.952Z,22.98
2022-11-28T23:32:21.944Z,22.55
2022-11-28T23:37:23.984Z,12.45
2022-11-28T23:42:25.921Z,37.72
2022-11-28T23:47:28.173Z,32.65
2022-11-28T23:52:30.191Z,23.77
2022-11-28T23:57:32.181Z,18.73
